Terminal Aerodrome Forecast
Issued by NWS

Home | Current Version | Previous Version | Text Only | Print | Product List | Glossary On
Versions: 1 2 3 4 5 6 7 8 9 10 11 12 13 14 15 16 17 18 19 20 21 22 23
000
FTUS46 KMTR 021739
TAFMRY
TAF
KMRY 021739Z 0218/0318 25008KT P6SM SCT018
     FM022000 28013KT P6SM FEW020 SCT200
     FM030100 26010KT P6SM BKN015
     FM030500 24007KT P6SM OVC012
     FM030800 23005KT P6SM OVC008
     FM031600 VRB03KT P6SM OVC012=

USA.gov is the U.S. government's official web portal to all federal, state and local government web resources and services.